Cliffwood, New Jersey
Current Conditions -  °F | °C
As of 1:55 PM on Monday 20 Oct 2014 (Local Time) from KLDJ Reporting Station
Clear Clear  
Wind Chill: 63°   Ceiling: Unl
Heat Index: 63°   Visibility: 10mi
Dew Point: 37°   Wind: 8mph
Humidity: 37%   Direction: 210°SSW
Pressure: 30.05"   Gusts: NA
Location:  40.44°N, 74.24°W
Report Text: KLDJ 201755Z AUTO 21007KT 170V260 10SM CLR 17/03 A3005 RMK AO2 T01740026 10174 20065
Loading
Personal Weather Stations






























Interactive Weather Map
Tropical Storm Tracking
New forecast layout! Learn more

10-Day Weather Forecast

Advertisements
Track Severe Weather on mobile